sensor_id;sensor_type;location;lat;lon;timestamp;temperature;humidity
5246;DHT22;54412;51.206;6.888;2023-05-19T00:01:14;12.60;99.90
5246;DHT22;54412;51.206;6.888;2023-05-19T00:03:49;12.50;99.90
5246;DHT22;54412;51.206;6.888;2023-05-19T00:06:23;12.50;99.90
5246;DHT22;54412;51.206;6.888;2023-05-19T00:09:05;12.50;99.90
5246;DHT22;54412;51.206;6.888;2023-05-19T00:11:33;12.60;99.90
5246;DHT22;54412;51.206;6.888;2023-05-19T00:14:01;12.50;99.90
5246;DHT22;54412;51.206;6.888;2023-05-19T00:16:30;12.50;99.90
5246;DHT22;54412;51.206;6.888;2023-05-19T00:19:00;12.60;99.90
5246;DHT22;54412;51.206;6.888;2023-05-19T00:21:28;12.60;99.90
5246;DHT22;54412;51.206;6.888;2023-05-19T00:23:55;12.50;99.90
5246;DHT22;54412;51.206;6.888;2023-05-19T00:26:22;12.50;99.90
5246;DHT22;54412;51.206;6.888;2023-05-19T00:28:49;12.50;99.90
5246;DHT22;54412;51.206;6.888;2023-05-19T00:31:15;12.40;99.90
5246;DHT22;54412;51.206;6.888;2023-05-19T00:33:41;12.50;99.90
5246;DHT22;54412;51.206;6.888;2023-05-19T00:36:07;12.50;99.90
5246;DHT22;54412;51.206;6.888;2023-05-19T00:38:35;12.50;99.90
5246;DHT22;54412;51.206;6.888;2023-05-19T00:41:02;12.50;99.90
5246;DHT22;54412;51.206;6.888;2023-05-19T00:43:30;12.50;99.90
5246;DHT22;54412;51.206;6.888;2023-05-19T00:45:58;12.50;99.90
5246;DHT22;54412;51.206;6.888;2023-05-19T00:48:25;12.40;99.90
5246;DHT22;54412;51.206;6.888;2023-05-19T00:50:54;12.40;99.90
5246;DHT22;54412;51.206;6.888;2023-05-19T00:53:26;12.30;99.90
5246;DHT22;54412;51.206;6.888;2023-05-19T00:55:53;12.20;99.90
5246;DHT22;54412;51.206;6.888;2023-05-19T00:58:19;12.20;99.90
5246;DHT22;54412;51.206;6.888;2023-05-19T01:00:45;12.20;99.90
5246;DHT22;54412;51.206;6.888;2023-05-19T01:03:11;12.20;99.90
5246;DHT22;54412;51.206;6.888;2023-05-19T01:05:38;12.20;99.90
5246;DHT22;54412;51.206;6.888;2023-05-19T01:08:14;12.20;99.90
5246;DHT22;54412;51.206;6.888;2023-05-19T01:10:40;12.20;99.90
5246;DHT22;54412;51.206;6.888;2023-05-19T01:13:07;12.20;99.90
5246;DHT22;54412;51.206;6.888;2023-05-19T01:18:31;12.10;99.90
5246;DHT22;54412;51.206;6.888;2023-05-19T01:21:26;12.10;99.90
5246;DHT22;54412;51.206;6.888;2023-05-19T01:25:05;12.20;99.90
5246;DHT22;54412;51.206;6.888;2023-05-19T01:30:28;12.10;99.90
5246;DHT22;54412;51.206;6.888;2023-05-19T01:32:59;12.10;99.90
5246;DHT22;54412;51.206;6.888;2023-05-19T01:35:27;12.20;99.90
5246;DHT22;54412;51.206;6.888;2023-05-19T01:37:56;12.20;99.90
5246;DHT22;54412;51.206;6.888;2023-05-19T01:40:25;12.10;99.90
5246;DHT22;54412;51.206;6.888;2023-05-19T01:42:53;12.10;99.90
5246;DHT22;54412;51.206;6.888;2023-05-19T01:45:21;12.10;99.90
5246;DHT22;54412;51.206;6.888;2023-05-19T01:47:51;12.00;99.90
5246;DHT22;54412;51.206;6.888;2023-05-19T01:50:19;12.10;99.90
5246;DHT22;54412;51.206;6.888;2023-05-19T01:52:45;12.00;99.90
5246;DHT22;54412;51.206;6.888;2023-05-19T01:55:11;11.90;99.90
5246;DHT22;54412;51.206;6.888;2023-05-19T01:58:05;12.00;99.90
5246;DHT22;54412;51.206;6.888;2023-05-19T02:00:52;11.90;99.90
5246;DHT22;54412;51.206;6.888;2023-05-19T02:04:06;11.90;99.90
5246;DHT22;54412;51.206;6.888;2023-05-19T02:07:04;11.90;99.90
5246;DHT22;54412;51.206;6.888;2023-05-19T02:12:32;12.00;99.90
5246;DHT22;54412;51.206;6.888;2023-05-19T02:17:44;11.80;99.90
5246;DHT22;54412;51.206;6.888;2023-05-19T02:20:16;11.80;99.90
5246;DHT22;54412;51.206;6.888;2023-05-19T02:22:43;11.70;99.90
5246;DHT22;54412;51.206;6.888;2023-05-19T02:25:10;11.70;99.90
5246;DHT22;54412;51.206;6.888;2023-05-19T02:27:37;11.90;99.90
5246;DHT22;54412;51.206;6.888;2023-05-19T02:30:04;12.00;99.90
5246;DHT22;54412;51.206;6.888;2023-05-19T02:32:31;11.90;99.90
5246;DHT22;54412;51.206;6.888;2023-05-19T02:34:57;12.00;99.90
5246;DHT22;54412;51.206;6.888;2023-05-19T02:37:22;11.90;99.90
5246;DHT22;54412;51.206;6.888;2023-05-19T02:39:49;12.10;99.90
5246;DHT22;54412;51.206;6.888;2023-05-19T02:42:15;12.10;99.90
5246;DHT22;54412;51.206;6.888;2023-05-19T02:44:43;12.10;99.90
5246;DHT22;54412;51.206;6.888;2023-05-19T02:47:09;12.00;99.90
5246;DHT22;54412;51.206;6.888;2023-05-19T02:49:35;12.00;99.90
5246;DHT22;54412;51.206;6.888;2023-05-19T02:52:02;11.80;99.90
5246;DHT22;54412;51.206;6.888;2023-05-19T02:54:29;11.70;99.90
5246;DHT22;54412;51.206;6.888;2023-05-19T02:56:55;11.70;99.90
5246;DHT22;54412;51.206;6.888;2023-05-19T02:59:22;11.80;99.90
5246;DHT22;54412;51.206;6.888;2023-05-19T03:01:49;11.60;99.90
5246;DHT22;54412;51.206;6.888;2023-05-19T03:04:15;11.60;99.90
5246;DHT22;54412;51.206;6.888;2023-05-19T03:06:44;11.50;99.90
5246;DHT22;54412;51.206;6.888;2023-05-19T03:09:11;11.60;99.90
5246;DHT22;54412;51.206;6.888;2023-05-19T03:11:38;11.30;99.90
5246;DHT22;54412;51.206;6.888;2023-05-19T03:14:03;11.40;99.90
5246;DHT22;54412;51.206;6.888;2023-05-19T03:16:29;11.30;99.90
5246;DHT22;54412;51.206;6.888;2023-05-19T03:18:55;11.20;99.90
5246;DHT22;54412;51.206;6.888;2023-05-19T03:21:21;11.20;99.90
5246;DHT22;54412;51.206;6.888;2023-05-19T03:23:47;11.20;99.90
5246;DHT22;54412;51.206;6.888;2023-05-19T03:26:13;11.10;99.90
5246;DHT22;54412;51.206;6.888;2023-05-19T03:28:38;11.00;99.90
5246;DHT22;54412;51.206;6.888;2023-05-19T03:31:04;11.10;99.90
5246;DHT22;54412;51.206;6.888;2023-05-19T03:33:30;11.10;99.90
5246;DHT22;54412;51.206;6.888;2023-05-19T03:35:56;11.10;99.90
5246;DHT22;54412;51.206;6.888;2023-05-19T03:38:22;11.10;99.90
5246;DHT22;54412;51.206;6.888;2023-05-19T03:40:48;11.00;99.90
5246;DHT22;54412;51.206;6.888;2023-05-19T03:43:13;11.20;99.90
5246;DHT22;54412;51.206;6.888;2023-05-19T03:45:40;11.30;99.90
5246;DHT22;54412;51.206;6.888;2023-05-19T03:48:06;11.30;99.90
5246;DHT22;54412;51.206;6.888;2023-05-19T03:50:32;11.40;99.90
5246;DHT22;54412;51.206;6.888;2023-05-19T03:52:59;11.40;99.90
5246;DHT22;54412;51.206;6.888;2023-05-19T03:55:25;11.40;99.90
5246;DHT22;54412;51.206;6.888;2023-05-19T03:57:54;11.40;99.90
5246;DHT22;54412;51.206;6.888;2023-05-19T04:00:20;11.30;99.90
5246;DHT22;54412;51.206;6.888;2023-05-19T04:02:46;11.30;99.90
5246;DHT22;54412;51.206;6.888;2023-05-19T04:05:12;11.30;99.90
5246;DHT22;54412;51.206;6.888;2023-05-19T04:07:38;11.40;99.90
5246;DHT22;54412;51.206;6.888;2023-05-19T04:10:04;11.30;99.90
5246;DHT22;54412;51.206;6.888;2023-05-19T04:12:30;11.20;99.90
5246;DHT22;54412;51.206;6.888;2023-05-19T04:14:56;11.20;99.90
5246;DHT22;54412;51.206;6.888;2023-05-19T04:17:22;11.10;99.90
5246;DHT22;54412;51.206;6.888;2023-05-19T04:19:53;11.20;99.90
5246;DHT22;54412;51.206;6.888;2023-05-19T04:22:19;11.20;99.90
5246;DHT22;54412;51.206;6.888;2023-05-19T04:24:45;11.30;99.90
5246;DHT22;54412;51.206;6.888;2023-05-19T04:27:11;11.30;99.90
5246;DHT22;54412;51.206;6.888;2023-05-19T04:29:38;11.30;99.90
5246;DHT22;54412;51.206;6.888;2023-05-19T04:32:08;11.30;99.90
5246;DHT22;54412;51.206;6.888;2023-05-19T04:34:35;11.30;99.90
5246;DHT22;54412;51.206;6.888;2023-05-19T04:37:05;11.40;99.90
5246;DHT22;54412;51.206;6.888;2023-05-19T04:39:31;11.40;99.90
5246;DHT22;54412;51.206;6.888;2023-05-19T04:41:57;11.50;99.90
5246;DHT22;54412;51.206;6.888;2023-05-19T04:44:24;11.40;99.90
5246;DHT22;54412;51.206;6.888;2023-05-19T04:46:50;11.50;99.90
5246;DHT22;54412;51.206;6.888;2023-05-19T04:49:18;11.50;99.90
5246;DHT22;54412;51.206;6.888;2023-05-19T04:51:45;11.40;99.90
5246;DHT22;54412;51.206;6.888;2023-05-19T04:54:14;11.40;99.90
5246;DHT22;54412;51.206;6.888;2023-05-19T04:56:40;11.40;99.90
5246;DHT22;54412;51.206;6.888;2023-05-19T04:59:06;11.50;99.90
5246;DHT22;54412;51.206;6.888;2023-05-19T05:01:31;11.60;99.90
5246;DHT22;54412;51.206;6.888;2023-05-19T05:03:58;11.60;99.90
5246;DHT22;54412;51.206;6.888;2023-05-19T05:06:25;11.70;99.90
5246;DHT22;54412;51.206;6.888;2023-05-19T05:08:53;11.80;99.90
5246;DHT22;54412;51.206;6.888;2023-05-19T05:11:18;11.80;99.90
5246;DHT22;54412;51.206;6.888;2023-05-19T05:13:45;11.80;99.90
5246;DHT22;54412;51.206;6.888;2023-05-19T05:16:11;11.90;99.90
5246;DHT22;54412;51.206;6.888;2023-05-19T05:18:37;11.90;99.90
5246;DHT22;54412;51.206;6.888;2023-05-19T05:21:04;12.00;99.90
5246;DHT22;54412;51.206;6.888;2023-05-19T05:23:31;12.00;99.90
5246;DHT22;54412;51.206;6.888;2023-05-19T05:25:57;12.00;99.90
5246;DHT22;54412;51.206;6.888;2023-05-19T05:28:23;12.10;99.90
5246;DHT22;54412;51.206;6.888;2023-05-19T05:30:49;12.00;99.90
5246;DHT22;54412;51.206;6.888;2023-05-19T05:33:15;12.00;99.90
5246;DHT22;54412;51.206;6.888;2023-05-19T05:35:42;12.10;99.90
5246;DHT22;54412;51.206;6.888;2023-05-19T05:38:08;12.20;99.90
5246;DHT22;54412;51.206;6.888;2023-05-19T05:40:35;12.10;99.90
5246;DHT22;54412;51.206;6.888;2023-05-19T05:43:01;12.10;99.90
5246;DHT22;54412;51.206;6.888;2023-05-19T05:45:26;12.20;99.90
5246;DHT22;54412;51.206;6.888;2023-05-19T05:47:53;12.40;99.90
5246;DHT22;54412;51.206;6.888;2023-05-19T05:50:19;12.40;99.90
5246;DHT22;54412;51.206;6.888;2023-05-19T05:52:48;12.50;99.90
5246;DHT22;54412;51.206;6.888;2023-05-19T05:55:15;12.60;99.90
5246;DHT22;54412;51.206;6.888;2023-05-19T05:57:44;12.60;99.90
5246;DHT22;54412;51.206;6.888;2023-05-19T06:00:10;12.70;99.90
5246;DHT22;54412;51.206;6.888;2023-05-19T06:02:45;12.70;99.90
5246;DHT22;54412;51.206;6.888;2023-05-19T06:05:11;12.80;99.90
5246;DHT22;54412;51.206;6.888;2023-05-19T06:07:39;12.90;99.90
5246;DHT22;54412;51.206;6.888;2023-05-19T06:10:05;13.00;99.90
5246;DHT22;54412;51.206;6.888;2023-05-19T06:12:33;13.10;99.90
5246;DHT22;54412;51.206;6.888;2023-05-19T06:15:00;13.20;99.90
5246;DHT22;54412;51.206;6.888;2023-05-19T06:17:27;13.20;99.90
5246;DHT22;54412;51.206;6.888;2023-05-19T06:19:53;13.40;99.90
5246;DHT22;54412;51.206;6.888;2023-05-19T06:22:18;13.50;99.90
5246;DHT22;54412;51.206;6.888;2023-05-19T06:24:44;13.60;99.90
5246;DHT22;54412;51.206;6.888;2023-05-19T06:27:10;13.60;99.90
5246;DHT22;54412;51.206;6.888;2023-05-19T06:29:35;13.70;99.90
5246;DHT22;54412;51.206;6.888;2023-05-19T06:32:01;13.80;99.90
5246;DHT22;54412;51.206;6.888;2023-05-19T06:34:27;13.90;99.90
5246;DHT22;54412;51.206;6.888;2023-05-19T06:36:52;13.90;99.90
5246;DHT22;54412;51.206;6.888;2023-05-19T06:39:18;14.10;99.90
5246;DHT22;54412;51.206;6.888;2023-05-19T06:41:44;14.10;99.90
5246;DHT22;54412;51.206;6.888;2023-05-19T06:44:09;14.20;99.90
5246;DHT22;54412;51.206;6.888;2023-05-19T06:46:35;14.30;99.90
5246;DHT22;54412;51.206;6.888;2023-05-19T06:49:01;14.30;99.90
5246;DHT22;54412;51.206;6.888;2023-05-19T06:51:27;14.40;99.90
5246;DHT22;54412;51.206;6.888;2023-05-19T06:53:52;14.50;99.90
5246;DHT22;54412;51.206;6.888;2023-05-19T06:56:18;14.60;99.90
5246;DHT22;54412;51.206;6.888;2023-05-19T06:58:44;14.70;99.90
5246;DHT22;54412;51.206;6.888;2023-05-19T07:01:10;14.80;99.90
5246;DHT22;54412;51.206;6.888;2023-05-19T07:03:36;14.90;99.90
5246;DHT22;54412;51.206;6.888;2023-05-19T07:06:01;15.00;99.90
5246;DHT22;54412;51.206;6.888;2023-05-19T07:08:27;15.10;99.90
5246;DHT22;54412;51.206;6.888;2023-05-19T07:10:53;15.20;99.90
5246;DHT22;54412;51.206;6.888;2023-05-19T07:13:22;15.30;99.90
5246;DHT22;54412;51.206;6.888;2023-05-19T07:15:48;15.40;99.90
5246;DHT22;54412;51.206;6.888;2023-05-19T07:18:14;15.30;99.90
5246;DHT22;54412;51.206;6.888;2023-05-19T07:20:40;15.40;99.90
5246;DHT22;54412;51.206;6.888;2023-05-19T07:23:05;15.50;99.90
5246;DHT22;54412;51.206;6.888;2023-05-19T07:25:31;15.50;99.90
5246;DHT22;54412;51.206;6.888;2023-05-19T07:27:58;15.60;99.90
5246;DHT22;54412;51.206;6.888;2023-05-19T07:30:25;15.80;99.90
5246;DHT22;54412;51.206;6.888;2023-05-19T07:32:54;15.80;99.90
5246;DHT22;54412;51.206;6.888;2023-05-19T07:35:20;15.90;99.90
5246;DHT22;54412;51.206;6.888;2023-05-19T07:37:49;16.00;99.90
5246;DHT22;54412;51.206;6.888;2023-05-19T07:40:16;16.10;99.90
5246;DHT22;54412;51.206;6.888;2023-05-19T07:42:41;16.20;99.90
5246;DHT22;54412;51.206;6.888;2023-05-19T07:45:09;16.30;99.90
5246;DHT22;54412;51.206;6.888;2023-05-19T07:47:35;16.30;99.90
5246;DHT22;54412;51.206;6.888;2023-05-19T07:50:02;16.40;99.90
5246;DHT22;54412;51.206;6.888;2023-05-19T07:52:28;16.50;99.90
5246;DHT22;54412;51.206;6.888;2023-05-19T07:54:53;16.70;99.90
5246;DHT22;54412;51.206;6.888;2023-05-19T07:57:19;16.70;99.90
5246;DHT22;54412;51.206;6.888;2023-05-19T07:59:45;16.80;99.90
5246;DHT22;54412;51.206;6.888;2023-05-19T08:02:10;16.80;99.90
5246;DHT22;54412;51.206;6.888;2023-05-19T08:04:36;16.90;99.90
5246;DHT22;54412;51.206;6.888;2023-05-19T08:07:02;17.00;99.90
5246;DHT22;54412;51.206;6.888;2023-05-19T08:09:28;17.10;99.90
5246;DHT22;54412;51.206;6.888;2023-05-19T08:11:53;17.20;99.90
5246;DHT22;54412;51.206;6.888;2023-05-19T08:14:19;17.20;99.90
5246;DHT22;54412;51.206;6.888;2023-05-19T08:16:47;17.30;99.90
5246;DHT22;54412;51.206;6.888;2023-05-19T08:19:14;17.40;99.90
5246;DHT22;54412;51.206;6.888;2023-05-19T08:21:40;17.40;99.90
5246;DHT22;54412;51.206;6.888;2023-05-19T08:24:07;17.40;99.90
5246;DHT22;54412;51.206;6.888;2023-05-19T08:26:33;17.40;99.90
5246;DHT22;54412;51.206;6.888;2023-05-19T08:28:59;17.50;99.90
5246;DHT22;54412;51.206;6.888;2023-05-19T08:31:25;17.60;99.90
5246;DHT22;54412;51.206;6.888;2023-05-19T08:33:51;17.60;99.90
5246;DHT22;54412;51.206;6.888;2023-05-19T08:36:17;17.70;99.90
5246;DHT22;54412;51.206;6.888;2023-05-19T08:38:43;17.80;99.90
5246;DHT22;54412;51.206;6.888;2023-05-19T08:41:09;18.00;99.90
5246;DHT22;54412;51.206;6.888;2023-05-19T08:43:35;18.10;99.90
5246;DHT22;54412;51.206;6.888;2023-05-19T08:46:02;18.20;99.90
5246;DHT22;54412;51.206;6.888;2023-05-19T08:48:29;18.20;99.90
5246;DHT22;54412;51.206;6.888;2023-05-19T08:51:13;18.30;99.90
5246;DHT22;54412;51.206;6.888;2023-05-19T08:53:49;18.30;99.90
5246;DHT22;54412;51.206;6.888;2023-05-19T08:56:21;18.40;99.90
5246;DHT22;54412;51.206;6.888;2023-05-19T08:58:50;18.40;99.90
5246;DHT22;54412;51.206;6.888;2023-05-19T09:01:16;18.50;99.90
5246;DHT22;54412;51.206;6.888;2023-05-19T09:03:46;18.50;99.90
5246;DHT22;54412;51.206;6.888;2023-05-19T09:06:14;18.60;99.90
5246;DHT22;54412;51.206;6.888;2023-05-19T09:08:41;18.70;99.90
5246;DHT22;54412;51.206;6.888;2023-05-19T09:11:10;18.80;99.90
5246;DHT22;54412;51.206;6.888;2023-05-19T09:13:37;18.90;99.90
5246;DHT22;54412;51.206;6.888;2023-05-19T09:16:03;18.80;99.90
5246;DHT22;54412;51.206;6.888;2023-05-19T09:18:29;18.80;99.90
5246;DHT22;54412;51.206;6.888;2023-05-19T09:20:56;19.00;99.90
5246;DHT22;54412;51.206;6.888;2023-05-19T09:23:31;19.00;99.90
5246;DHT22;54412;51.206;6.888;2023-05-19T09:26:04;19.00;99.60
5246;DHT22;54412;51.206;6.888;2023-05-19T09:28:33;19.10;99.90
5246;DHT22;54412;51.206;6.888;2023-05-19T09:31:10;19.20;99.80
5246;DHT22;54412;51.206;6.888;2023-05-19T09:33:40;19.20;99.60
5246;DHT22;54412;51.206;6.888;2023-05-19T09:36:07;19.10;99.40
5246;DHT22;54412;51.206;6.888;2023-05-19T09:38:36;19.20;98.80
5246;DHT22;54412;51.206;6.888;2023-05-19T09:41:05;19.40;99.10
5246;DHT22;54412;51.206;6.888;2023-05-19T09:43:33;19.40;98.20
5246;DHT22;54412;51.206;6.888;2023-05-19T09:46:06;19.50;98.80
5246;DHT22;54412;51.206;6.888;2023-05-19T09:48:38;19.60;97.90
5246;DHT22;54412;51.206;6.888;2023-05-19T09:51:04;19.60;96.80
5246;DHT22;54412;51.206;6.888;2023-05-19T09:53:33;19.60;97.40
5246;DHT22;54412;51.206;6.888;2023-05-19T09:56:00;19.60;97.20
5246;DHT22;54412;51.206;6.888;2023-05-19T09:58:31;19.70;96.40
5246;DHT22;54412;51.206;6.888;2023-05-19T10:01:02;19.70;96.90
5246;DHT22;54412;51.206;6.888;2023-05-19T10:03:28;19.80;97.50
5246;DHT22;54412;51.206;6.888;2023-05-19T10:05:57;19.90;97.10
5246;DHT22;54412;51.206;6.888;2023-05-19T10:08:26;20.00;97.10
5246;DHT22;54412;51.206;6.888;2023-05-19T10:10:55;20.10;96.40
5246;DHT22;54412;51.206;6.888;2023-05-19T10:13:22;20.10;95.80
5246;DHT22;54412;51.206;6.888;2023-05-19T10:15:49;20.10;95.80
5246;DHT22;54412;51.206;6.888;2023-05-19T10:18:17;20.10;95.60
5246;DHT22;54412;51.206;6.888;2023-05-19T10:20:43;20.10;95.50
5246;DHT22;54412;51.206;6.888;2023-05-19T10:23:10;20.20;95.20
5246;DHT22;54412;51.206;6.888;2023-05-19T10:25:36;20.20;95.10
5246;DHT22;54412;51.206;6.888;2023-05-19T10:28:12;20.20;96.10
5246;DHT22;54412;51.206;6.888;2023-05-19T10:30:44;20.40;95.50
5246;DHT22;54412;51.206;6.888;2023-05-19T10:33:15;20.20;94.00
5246;DHT22;54412;51.206;6.888;2023-05-19T10:39:24;20.10;94.80
5246;DHT22;54412;51.206;6.888;2023-05-19T10:42:03;20.20;94.00
5246;DHT22;54412;51.206;6.888;2023-05-19T10:45:12;20.50;94.30
5246;DHT22;54412;51.206;6.888;2023-05-19T10:47:43;20.60;93.90
5246;DHT22;54412;51.206;6.888;2023-05-19T10:50:09;20.70;93.90
5246;DHT22;54412;51.206;6.888;2023-05-19T10:52:36;20.60;93.00
5246;DHT22;54412;51.206;6.888;2023-05-19T10:55:06;20.70;94.80
5246;DHT22;54412;51.206;6.888;2023-05-19T10:57:32;20.80;94.10
5246;DHT22;54412;51.206;6.888;2023-05-19T11:00:02;21.00;93.80
5246;DHT22;54412;51.206;6.888;2023-05-19T11:02:42;21.20;93.50
5246;DHT22;54412;51.206;6.888;2023-05-19T11:05:13;21.10;92.50
5246;DHT22;54412;51.206;6.888;2023-05-19T11:07:43;21.30;93.20
5246;DHT22;54412;51.206;6.888;2023-05-19T11:10:22;21.30;93.30
5246;DHT22;54412;51.206;6.888;2023-05-19T11:12:49;21.20;91.90
5246;DHT22;54412;51.206;6.888;2023-05-19T11:15:15;21.20;91.90
5246;DHT22;54412;51.206;6.888;2023-05-19T11:17:44;21.10;91.40
5246;DHT22;54412;51.206;6.888;2023-05-19T11:20:26;21.10;91.90
5246;DHT22;54412;51.206;6.888;2023-05-19T11:23:14;21.30;92.90
5246;DHT22;54412;51.206;6.888;2023-05-19T11:25:47;21.50;92.20
5246;DHT22;54412;51.206;6.888;2023-05-19T11:28:17;21.50;92.20
5246;DHT22;54412;51.206;6.888;2023-05-19T11:30:46;21.30;90.30
5246;DHT22;54412;51.206;6.888;2023-05-19T11:33:16;21.00;91.00
5246;DHT22;54412;51.206;6.888;2023-05-19T11:35:45;21.10;91.50
5246;DHT22;54412;51.206;6.888;2023-05-19T11:38:13;21.20;91.40
5246;DHT22;54412;51.206;6.888;2023-05-19T11:40:40;21.30;91.00
5246;DHT22;54412;51.206;6.888;2023-05-19T11:43:06;21.30;90.80
5246;DHT22;54412;51.206;6.888;2023-05-19T11:45:33;21.40;91.30
5246;DHT22;54412;51.206;6.888;2023-05-19T11:47:59;21.60;90.70
5246;DHT22;54412;51.206;6.888;2023-05-19T11:50:27;21.80;91.30
5246;DHT22;54412;51.206;6.888;2023-05-19T11:52:54;21.90;90.20
5246;DHT22;54412;51.206;6.888;2023-05-19T11:55:21;21.70;89.50
5246;DHT22;54412;51.206;6.888;2023-05-19T11:58:04;21.80;90.20
5246;DHT22;54412;51.206;6.888;2023-05-19T12:00:34;21.70;89.30
5246;DHT22;54412;51.206;6.888;2023-05-19T12:03:04;21.60;90.30
5246;DHT22;54412;51.206;6.888;2023-05-19T12:05:30;21.80;90.50
5246;DHT22;54412;51.206;6.888;2023-05-19T12:07:56;21.90;90.70
5246;DHT22;54412;51.206;6.888;2023-05-19T12:10:23;22.10;91.10
5246;DHT22;54412;51.206;6.888;2023-05-19T12:12:50;21.90;90.00
5246;DHT22;54412;51.206;6.888;2023-05-19T12:15:21;21.90;87.90
5246;DHT22;54412;51.206;6.888;2023-05-19T12:17:49;21.80;90.10
5246;DHT22;54412;51.206;6.888;2023-05-19T12:20:20;21.90;90.00
5246;DHT22;54412;51.206;6.888;2023-05-19T12:22:47;22.10;89.50
5246;DHT22;54412;51.206;6.888;2023-05-19T12:25:17;22.10;87.50
5246;DHT22;54412;51.206;6.888;2023-05-19T12:27:43;21.90;89.50
5246;DHT22;54412;51.206;6.888;2023-05-19T12:30:10;21.80;87.30
5246;DHT22;54412;51.206;6.888;2023-05-19T12:32:37;22.10;90.10
5246;DHT22;54412;51.206;6.888;2023-05-19T12:35:03;22.10;89.50
5246;DHT22;54412;51.206;6.888;2023-05-19T12:37:30;22.20;88.30
5246;DHT22;54412;51.206;6.888;2023-05-19T12:40:00;22.10;89.40
5246;DHT22;54412;51.206;6.888;2023-05-19T12:42:29;22.10;89.70
5246;DHT22;54412;51.206;6.888;2023-05-19T12:44:57;22.20;88.70
5246;DHT22;54412;51.206;6.888;2023-05-19T12:47:33;22.30;89.70
5246;DHT22;54412;51.206;6.888;2023-05-19T12:52:31;22.70;90.30
5246;DHT22;54412;51.206;6.888;2023-05-19T12:55:01;22.70;88.50
5246;DHT22;54412;51.206;6.888;2023-05-19T12:57:36;22.60;88.30
5246;DHT22;54412;51.206;6.888;2023-05-19T13:02:34;22.80;87.70
5246;DHT22;54412;51.206;6.888;2023-05-19T13:05:18;22.70;85.10
5246;DHT22;54412;51.206;6.888;2023-05-19T13:07:56;22.70;86.60
5246;DHT22;54412;51.206;6.888;2023-05-19T13:10:22;22.60;85.70
5246;DHT22;54412;51.206;6.888;2023-05-19T13:12:51;22.50;85.00
5246;DHT22;54412;51.206;6.888;2023-05-19T13:15:18;22.50;85.20
5246;DHT22;54412;51.206;6.888;2023-05-19T13:17:44;22.50;86.10
5246;DHT22;54412;51.206;6.888;2023-05-19T13:20:13;22.60;86.00
5246;DHT22;54412;51.206;6.888;2023-05-19T13:22:38;22.40;85.00
5246;DHT22;54412;51.206;6.888;2023-05-19T13:25:04;22.50;86.40
5246;DHT22;54412;51.206;6.888;2023-05-19T13:27:31;22.60;84.90
5246;DHT22;54412;51.206;6.888;2023-05-19T13:29:56;22.70;85.50
5246;DHT22;54412;51.206;6.888;2023-05-19T13:32:22;22.70;85.30
5246;DHT22;54412;51.206;6.888;2023-05-19T13:34:48;22.30;83.20
5246;DHT22;54412;51.206;6.888;2023-05-19T13:37:14;22.40;86.00
5246;DHT22;54412;51.206;6.888;2023-05-19T13:39:39;22.30;86.20
5246;DHT22;54412;51.206;6.888;2023-05-19T13:42:05;22.50;85.90
5246;DHT22;54412;51.206;6.888;2023-05-19T13:44:31;22.50;84.50
5246;DHT22;54412;51.206;6.888;2023-05-19T13:46:57;22.50;86.10
5246;DHT22;54412;51.206;6.888;2023-05-19T13:49:23;22.40;85.60
5246;DHT22;54412;51.206;6.888;2023-05-19T13:51:49;22.60;86.60
5246;DHT22;54412;51.206;6.888;2023-05-19T13:54:14;22.70;86.80
5246;DHT22;54412;51.206;6.888;2023-05-19T13:56:42;22.70;85.70
5246;DHT22;54412;51.206;6.888;2023-05-19T13:59:10;22.70;86.50
5246;DHT22;54412;51.206;6.888;2023-05-19T14:01:35;22.70;85.80
5246;DHT22;54412;51.206;6.888;2023-05-19T14:04:01;22.90;87.80
5246;DHT22;54412;51.206;6.888;2023-05-19T14:06:27;22.70;83.70
5246;DHT22;54412;51.206;6.888;2023-05-19T14:08:52;22.50;84.00
5246;DHT22;54412;51.206;6.888;2023-05-19T14:11:19;22.60;88.30
5246;DHT22;54412;51.206;6.888;2023-05-19T14:13:47;22.70;85.30
5246;DHT22;54412;51.206;6.888;2023-05-19T14:16:16;22.80;85.80
5246;DHT22;54412;51.206;6.888;2023-05-19T14:18:42;22.80;85.40
5246;DHT22;54412;51.206;6.888;2023-05-19T14:21:08;22.70;84.80
5246;DHT22;54412;51.206;6.888;2023-05-19T14:23:34;22.70;83.40
5246;DHT22;54412;51.206;6.888;2023-05-19T14:26:00;22.60;82.60
5246;DHT22;54412;51.206;6.888;2023-05-19T14:28:25;22.50;83.40
5246;DHT22;54412;51.206;6.888;2023-05-19T14:30:51;22.50;81.80
5246;DHT22;54412;51.206;6.888;2023-05-19T14:33:17;22.30;82.40
5246;DHT22;54412;51.206;6.888;2023-05-19T14:35:44;22.30;84.40
5246;DHT22;54412;51.206;6.888;2023-05-19T14:38:10;22.30;83.60
5246;DHT22;54412;51.206;6.888;2023-05-19T14:40:36;22.30;83.20
5246;DHT22;54412;51.206;6.888;2023-05-19T14:43:02;22.20;84.20
5246;DHT22;54412;51.206;6.888;2023-05-19T14:45:28;22.20;83.10
5246;DHT22;54412;51.206;6.888;2023-05-19T14:47:53;22.10;83.50
5246;DHT22;54412;51.206;6.888;2023-05-19T14:50:19;22.00;82.40
5246;DHT22;54412;51.206;6.888;2023-05-19T14:52:45;22.20;84.90
5246;DHT22;54412;51.206;6.888;2023-05-19T14:55:11;22.10;82.60
5246;DHT22;54412;51.206;6.888;2023-05-19T14:57:36;22.00;81.80
5246;DHT22;54412;51.206;6.888;2023-05-19T15:00:02;22.00;83.70
5246;DHT22;54412;51.206;6.888;2023-05-19T15:02:28;22.00;82.00
5246;DHT22;54412;51.206;6.888;2023-05-19T15:04:54;22.00;83.80
5246;DHT22;54412;51.206;6.888;2023-05-19T15:07:19;22.00;83.20
5246;DHT22;54412;51.206;6.888;2023-05-19T15:09:45;21.90;80.70
5246;DHT22;54412;51.206;6.888;2023-05-19T15:12:11;21.90;81.80
5246;DHT22;54412;51.206;6.888;2023-05-19T15:14:37;21.60;83.50
5246;DHT22;54412;51.206;6.888;2023-05-19T15:17:02;21.80;83.00
5246;DHT22;54412;51.206;6.888;2023-05-19T15:19:28;21.90;83.70
5246;DHT22;54412;51.206;6.888;2023-05-19T15:21:54;21.90;83.70
5246;DHT22;54412;51.206;6.888;2023-05-19T15:24:20;21.80;80.60
5246;DHT22;54412;51.206;6.888;2023-05-19T15:26:45;21.70;81.40
5246;DHT22;54412;51.206;6.888;2023-05-19T15:29:11;21.70;79.90
5246;DHT22;54412;51.206;6.888;2023-05-19T15:31:37;21.70;81.60
5246;DHT22;54412;51.206;6.888;2023-05-19T15:34:03;21.70;81.40
5246;DHT22;54412;51.206;6.888;2023-05-19T15:36:28;21.50;80.60
5246;DHT22;54412;51.206;6.888;2023-05-19T15:38:54;21.60;82.10
5246;DHT22;54412;51.206;6.888;2023-05-19T15:41:20;21.40;81.00
5246;DHT22;54412;51.206;6.888;2023-05-19T15:43:46;21.40;82.80
5246;DHT22;54412;51.206;6.888;2023-05-19T15:46:11;21.60;82.40
5246;DHT22;54412;51.206;6.888;2023-05-19T15:48:37;21.60;82.00
5246;DHT22;54412;51.206;6.888;2023-05-19T15:51:03;21.60;81.80
5246;DHT22;54412;51.206;6.888;2023-05-19T15:53:29;21.40;80.60
5246;DHT22;54412;51.206;6.888;2023-05-19T15:55:55;21.40;81.70
5246;DHT22;54412;51.206;6.888;2023-05-19T15:58:21;21.40;82.40
5246;DHT22;54412;51.206;6.888;2023-05-19T16:00:47;21.50;80.90
5246;DHT22;54412;51.206;6.888;2023-05-19T16:03:13;21.50;81.60
5246;DHT22;54412;51.206;6.888;2023-05-19T16:05:39;21.50;81.50
5246;DHT22;54412;51.206;6.888;2023-05-19T16:08:05;21.40;81.00
5246;DHT22;54412;51.206;6.888;2023-05-19T16:10:30;21.40;82.40